sensor_id;sensor_type;location;lat;lon;timestamp;P1;durP1;ratioP1;P2;durP2;ratioP2
2784;SDS011;57944;48.722;9.316;2022-07-17T00:00:58;8.53;;;6.43;;
2784;SDS011;57944;48.722;9.316;2022-07-17T00:03:28;11.87;;;7.03;;
2784;SDS011;57944;48.722;9.316;2022-07-17T00:05:58;10.83;;;5.83;;
2784;SDS011;57944;48.722;9.316;2022-07-17T00:08:29;9.20;;;7.30;;
2784;SDS011;57944;48.722;9.316;2022-07-17T00:11:02;8.53;;;6.33;;
2784;SDS011;57944;48.722;9.316;2022-07-17T00:13:32;11.27;;;8.40;;
2784;SDS011;57944;48.722;9.316;2022-07-17T00:16:02;9.30;;;7.10;;
2784;SDS011;57944;48.722;9.316;2022-07-17T00:18:33;11.80;;;7.70;;
2784;SDS011;57944;48.722;9.316;2022-07-17T00:21:03;8.37;;;6.90;;
2784;SDS011;57944;48.722;9.316;2022-07-17T00:23:34;9.37;;;7.07;;
2784;SDS011;57944;48.722;9.316;2022-07-17T00:26:07;8.23;;;6.67;;
2784;SDS011;57944;48.722;9.316;2022-07-17T00:28:37;9.17;;;6.80;;
2784;SDS011;57944;48.722;9.316;2022-07-17T00:31:08;10.13;;;7.20;;
2784;SDS011;57944;48.722;9.316;2022-07-17T00:33:38;12.90;;;7.80;;
2784;SDS011;57944;48.722;9.316;2022-07-17T00:36:08;9.60;;;7.30;;
2784;SDS011;57944;48.722;9.316;2022-07-17T00:38:38;9.80;;;6.40;;
2784;SDS011;57944;48.722;9.316;2022-07-17T00:41:13;9.47;;;7.47;;
2784;SDS011;57944;48.722;9.316;2022-07-17T00:43:43;10.77;;;7.00;;
2784;SDS011;57944;48.722;9.316;2022-07-17T00:46:14;7.63;;;6.60;;
2784;SDS011;57944;48.722;9.316;2022-07-17T00:48:44;8.83;;;7.50;;
2784;SDS011;57944;48.722;9.316;2022-07-17T00:51:15;9.87;;;7.70;;
2784;SDS011;57944;48.722;9.316;2022-07-17T00:53:45;12.70;;;8.83;;
2784;SDS011;57944;48.722;9.316;2022-07-17T00:56:22;11.97;;;8.37;;
2784;SDS011;57944;48.722;9.316;2022-07-17T00:58:52;10.33;;;7.70;;
2784;SDS011;57944;48.722;9.316;2022-07-17T01:01:22;10.87;;;7.63;;
2784;SDS011;57944;48.722;9.316;2022-07-17T01:03:53;11.50;;;7.10;;
2784;SDS011;57944;48.722;9.316;2022-07-17T01:06:23;11.37;;;7.43;;
2784;SDS011;57944;48.722;9.316;2022-07-17T01:08:53;8.40;;;7.50;;
2784;SDS011;57944;48.722;9.316;2022-07-17T01:11:26;11.30;;;7.90;;
2784;SDS011;57944;48.722;9.316;2022-07-17T01:13:57;9.93;;;7.33;;
2784;SDS011;57944;48.722;9.316;2022-07-17T01:16:27;10.80;;;7.47;;
2784;SDS011;57944;48.722;9.316;2022-07-17T01:18:58;9.40;;;7.90;;
2784;SDS011;57944;48.722;9.316;2022-07-17T01:21:39;10.60;;;8.03;;
2784;SDS011;57944;48.722;9.316;2022-07-17T01:24:10;14.43;;;8.10;;
2784;SDS011;57944;48.722;9.316;2022-07-17T01:26:42;8.70;;;6.87;;
2784;SDS011;57944;48.722;9.316;2022-07-17T01:29:14;9.07;;;7.07;;
2784;SDS011;57944;48.722;9.316;2022-07-17T01:31:45;9.50;;;6.60;;
2784;SDS011;57944;48.722;9.316;2022-07-17T01:34:16;10.33;;;7.00;;
2784;SDS011;57944;48.722;9.316;2022-07-17T01:36:48;14.70;;;8.97;;
2784;SDS011;57944;48.722;9.316;2022-07-17T01:39:18;10.47;;;8.00;;
2784;SDS011;57944;48.722;9.316;2022-07-17T01:42:09;8.67;;;7.77;;
2784;SDS011;57944;48.722;9.316;2022-07-17T01:44:39;8.93;;;8.03;;
2784;SDS011;57944;48.722;9.316;2022-07-17T01:47:09;9.63;;;7.87;;
2784;SDS011;57944;48.722;9.316;2022-07-17T01:49:45;11.27;;;8.70;;
2784;SDS011;57944;48.722;9.316;2022-07-17T01:52:21;10.40;;;7.53;;
2784;SDS011;57944;48.722;9.316;2022-07-17T01:54:54;9.93;;;8.20;;
2784;SDS011;57944;48.722;9.316;2022-07-17T01:57:24;8.60;;;7.70;;
2784;SDS011;57944;48.722;9.316;2022-07-17T01:59:54;8.53;;;7.70;;
2784;SDS011;57944;48.722;9.316;2022-07-17T02:02:24;10.67;;;8.93;;
2784;SDS011;57944;48.722;9.316;2022-07-17T02:04:56;13.63;;;8.47;;
2784;SDS011;57944;48.722;9.316;2022-07-17T02:07:28;13.33;;;7.83;;
2784;SDS011;57944;48.722;9.316;2022-07-17T02:09:59;8.77;;;7.50;;
2784;SDS011;57944;48.722;9.316;2022-07-17T02:12:29;11.13;;;8.00;;
2784;SDS011;57944;48.722;9.316;2022-07-17T02:15:00;10.47;;;8.03;;
2784;SDS011;57944;48.722;9.316;2022-07-17T02:17:30;9.43;;;8.30;;
2784;SDS011;57944;48.722;9.316;2022-07-17T02:20:00;13.60;;;8.40;;
2784;SDS011;57944;48.722;9.316;2022-07-17T02:22:33;9.57;;;7.83;;
2784;SDS011;57944;48.722;9.316;2022-07-17T02:25:04;8.73;;;7.80;;
2784;SDS011;57944;48.722;9.316;2022-07-17T02:27:37;11.07;;;8.60;;
2784;SDS011;57944;48.722;9.316;2022-07-17T02:30:09;9.93;;;8.20;;
2784;SDS011;57944;48.722;9.316;2022-07-17T02:32:42;11.37;;;9.10;;
2784;SDS011;57944;48.722;9.316;2022-07-17T02:35:13;9.30;;;7.77;;
2784;SDS011;57944;48.722;9.316;2022-07-17T02:37:46;10.80;;;8.60;;
2784;SDS011;57944;48.722;9.316;2022-07-17T02:40:16;11.00;;;8.77;;
2784;SDS011;57944;48.722;9.316;2022-07-17T02:42:46;13.33;;;8.87;;
2784;SDS011;57944;48.722;9.316;2022-07-17T02:45:16;9.83;;;8.17;;
2784;SDS011;57944;48.722;9.316;2022-07-17T02:47:51;10.33;;;7.67;;
2784;SDS011;57944;48.722;9.316;2022-07-17T02:50:22;11.40;;;10.20;;
2784;SDS011;57944;48.722;9.316;2022-07-17T02:52:55;11.73;;;8.27;;
2784;SDS011;57944;48.722;9.316;2022-07-17T02:55:25;15.10;;;8.40;;
2784;SDS011;57944;48.722;9.316;2022-07-17T02:57:55;10.80;;;9.30;;
2784;SDS011;57944;48.722;9.316;2022-07-17T03:00:25;13.90;;;8.97;;
2784;SDS011;57944;48.722;9.316;2022-07-17T03:02:55;10.47;;;8.67;;
2784;SDS011;57944;48.722;9.316;2022-07-17T03:05:26;13.03;;;8.60;;
2784;SDS011;57944;48.722;9.316;2022-07-17T03:07:58;11.87;;;8.80;;
2784;SDS011;57944;48.722;9.316;2022-07-17T03:10:28;9.83;;;8.83;;
2784;SDS011;57944;48.722;9.316;2022-07-17T03:12:59;9.27;;;8.37;;
2784;SDS011;57944;48.722;9.316;2022-07-17T03:15:29;10.60;;;8.63;;
2784;SDS011;57944;48.722;9.316;2022-07-17T03:17:59;10.73;;;8.77;;
2784;SDS011;57944;48.722;9.316;2022-07-17T03:20:30;11.43;;;9.10;;
2784;SDS011;57944;48.722;9.316;2022-07-17T03:23:02;13.07;;;8.17;;
2784;SDS011;57944;48.722;9.316;2022-07-17T03:25:32;19.53;;;9.47;;
2784;SDS011;57944;48.722;9.316;2022-07-17T03:28:02;11.93;;;8.60;;
2784;SDS011;57944;48.722;9.316;2022-07-17T03:30:33;12.70;;;8.40;;
2784;SDS011;57944;48.722;9.316;2022-07-17T03:33:03;15.67;;;9.20;;
2784;SDS011;57944;48.722;9.316;2022-07-17T03:35:33;10.13;;;8.67;;
2784;SDS011;57944;48.722;9.316;2022-07-17T03:38:05;18.63;;;9.20;;
2784;SDS011;57944;48.722;9.316;2022-07-17T03:40:35;11.00;;;9.10;;
2784;SDS011;57944;48.722;9.316;2022-07-17T03:43:05;10.73;;;8.97;;
2784;SDS011;57944;48.722;9.316;2022-07-17T03:45:35;10.50;;;8.10;;
2784;SDS011;57944;48.722;9.316;2022-07-17T03:48:06;11.97;;;8.67;;
2784;SDS011;57944;48.722;9.316;2022-07-17T03:50:36;11.10;;;8.90;;
2784;SDS011;57944;48.722;9.316;2022-07-17T03:53:09;14.00;;;10.23;;
2784;SDS011;57944;48.722;9.316;2022-07-17T03:55:40;16.13;;;10.20;;
2784;SDS011;57944;48.722;9.316;2022-07-17T03:58:10;13.63;;;10.47;;
2784;SDS011;57944;48.722;9.316;2022-07-17T04:00:40;14.63;;;10.37;;
2784;SDS011;57944;48.722;9.316;2022-07-17T04:03:10;13.77;;;10.73;;
2784;SDS011;57944;48.722;9.316;2022-07-17T04:05:40;11.00;;;9.80;;
2784;SDS011;57944;48.722;9.316;2022-07-17T04:08:13;15.10;;;10.03;;
2784;SDS011;57944;48.722;9.316;2022-07-17T04:10:43;18.27;;;11.17;;
2784;SDS011;57944;48.722;9.316;2022-07-17T04:13:13;13.07;;;10.80;;
2784;SDS011;57944;48.722;9.316;2022-07-17T04:15:43;17.23;;;11.40;;
2784;SDS011;57944;48.722;9.316;2022-07-17T04:18:23;14.07;;;10.90;;
2784;SDS011;57944;48.722;9.316;2022-07-17T04:20:56;12.23;;;9.73;;
2784;SDS011;57944;48.722;9.316;2022-07-17T04:23:31;17.10;;;8.93;;
2784;SDS011;57944;48.722;9.316;2022-07-17T04:26:02;11.20;;;9.43;;
2784;SDS011;57944;48.722;9.316;2022-07-17T04:28:36;13.10;;;10.10;;
2784;SDS011;57944;48.722;9.316;2022-07-17T04:31:07;12.93;;;8.93;;
2784;SDS011;57944;48.722;9.316;2022-07-17T04:33:37;13.23;;;8.97;;
2784;SDS011;57944;48.722;9.316;2022-07-17T04:36:07;11.50;;;8.60;;
2784;SDS011;57944;48.722;9.316;2022-07-17T04:38:40;12.93;;;9.10;;
2784;SDS011;57944;48.722;9.316;2022-07-17T04:41:10;10.07;;;8.60;;
2784;SDS011;57944;48.722;9.316;2022-07-17T04:43:40;10.53;;;8.70;;
2784;SDS011;57944;48.722;9.316;2022-07-17T04:46:10;13.20;;;9.00;;
2784;SDS011;57944;48.722;9.316;2022-07-17T04:48:40;9.00;;;8.10;;
2784;SDS011;57944;48.722;9.316;2022-07-17T04:51:10;8.67;;;7.87;;
2784;SDS011;57944;48.722;9.316;2022-07-17T04:53:43;10.20;;;8.57;;
2784;SDS011;57944;48.722;9.316;2022-07-17T04:56:13;10.70;;;8.63;;
2784;SDS011;57944;48.722;9.316;2022-07-17T04:58:43;9.60;;;7.97;;
2784;SDS011;57944;48.722;9.316;2022-07-17T05:01:13;15.00;;;8.27;;
2784;SDS011;57944;48.722;9.316;2022-07-17T05:03:43;11.47;;;8.13;;
2784;SDS011;57944;48.722;9.316;2022-07-17T05:06:13;9.83;;;6.90;;
2784;SDS011;57944;48.722;9.316;2022-07-17T05:08:45;9.40;;;7.40;;
2784;SDS011;57944;48.722;9.316;2022-07-17T05:11:15;8.93;;;7.30;;
2784;SDS011;57944;48.722;9.316;2022-07-17T05:13:45;7.87;;;7.07;;
2784;SDS011;57944;48.722;9.316;2022-07-17T05:16:15;8.20;;;7.40;;
2784;SDS011;57944;48.722;9.316;2022-07-17T05:18:46;7.73;;;6.73;;
2784;SDS011;57944;48.722;9.316;2022-07-17T05:21:16;13.70;;;8.43;;
2784;SDS011;57944;48.722;9.316;2022-07-17T05:23:49;8.83;;;7.17;;
2784;SDS011;57944;48.722;9.316;2022-07-17T05:26:19;7.70;;;6.73;;
2784;SDS011;57944;48.722;9.316;2022-07-17T05:28:49;8.97;;;7.67;;
2784;SDS011;57944;48.722;9.316;2022-07-17T05:31:19;11.70;;;8.40;;
2784;SDS011;57944;48.722;9.316;2022-07-17T05:33:49;11.03;;;6.80;;
2784;SDS011;57944;48.722;9.316;2022-07-17T05:36:22;10.77;;;8.87;;
2784;SDS011;57944;48.722;9.316;2022-07-17T05:38:55;9.20;;;7.20;;
2784;SDS011;57944;48.722;9.316;2022-07-17T05:41:25;9.13;;;8.23;;
2784;SDS011;57944;48.722;9.316;2022-07-17T05:43:55;11.63;;;7.63;;
2784;SDS011;57944;48.722;9.316;2022-07-17T05:46:25;11.60;;;6.50;;
2784;SDS011;57944;48.722;9.316;2022-07-17T05:48:55;7.80;;;7.00;;
2784;SDS011;57944;48.722;9.316;2022-07-17T05:51:25;7.50;;;6.77;;
2784;SDS011;57944;48.722;9.316;2022-07-17T05:53:58;11.17;;;7.10;;
2784;SDS011;57944;48.722;9.316;2022-07-17T05:56:28;10.93;;;7.67;;
2784;SDS011;57944;48.722;9.316;2022-07-17T05:58:58;11.90;;;7.50;;
2784;SDS011;57944;48.722;9.316;2022-07-17T06:01:28;8.73;;;6.97;;
2784;SDS011;57944;48.722;9.316;2022-07-17T06:03:58;8.27;;;7.13;;
2784;SDS011;57944;48.722;9.316;2022-07-17T06:06:28;8.27;;;7.10;;
2784;SDS011;57944;48.722;9.316;2022-07-17T06:09:01;8.37;;;7.30;;
2784;SDS011;57944;48.722;9.316;2022-07-17T06:11:31;11.50;;;6.87;;
2784;SDS011;57944;48.722;9.316;2022-07-17T06:14:03;8.73;;;6.90;;
2784;SDS011;57944;48.722;9.316;2022-07-17T06:16:33;12.03;;;7.07;;
2784;SDS011;57944;48.722;9.316;2022-07-17T06:19:03;8.77;;;7.40;;
2784;SDS011;57944;48.722;9.316;2022-07-17T06:21:33;7.13;;;6.20;;
2784;SDS011;57944;48.722;9.316;2022-07-17T06:24:06;6.90;;;6.20;;
2784;SDS011;57944;48.722;9.316;2022-07-17T06:26:36;8.03;;;7.23;;
2784;SDS011;57944;48.722;9.316;2022-07-17T06:29:06;11.80;;;6.73;;
2784;SDS011;57944;48.722;9.316;2022-07-17T06:31:36;7.40;;;6.70;;
2784;SDS011;57944;48.722;9.316;2022-07-17T06:34:07;8.13;;;5.63;;
2784;SDS011;57944;48.722;9.316;2022-07-17T06:36:37;11.57;;;6.90;;
2784;SDS011;57944;48.722;9.316;2022-07-17T06:39:10;7.43;;;6.70;;
2784;SDS011;57944;48.722;9.316;2022-07-17T06:41:40;12.70;;;6.20;;
2784;SDS011;57944;48.722;9.316;2022-07-17T06:44:10;8.40;;;5.47;;
2784;SDS011;57944;48.722;9.316;2022-07-17T06:46:40;6.10;;;5.50;;
2784;SDS011;57944;48.722;9.316;2022-07-17T06:49:10;12.13;;;6.10;;
2784;SDS011;57944;48.722;9.316;2022-07-17T06:51:40;5.73;;;5.00;;
2784;SDS011;57944;48.722;9.316;2022-07-17T06:54:14;7.53;;;4.90;;
2784;SDS011;57944;48.722;9.316;2022-07-17T06:56:45;5.73;;;4.90;;
2784;SDS011;57944;48.722;9.316;2022-07-17T06:59:15;8.20;;;5.47;;
2784;SDS011;57944;48.722;9.316;2022-07-17T07:01:45;7.13;;;5.03;;
2784;SDS011;57944;48.722;9.316;2022-07-17T07:04:15;6.70;;;6.10;;
2784;SDS011;57944;48.722;9.316;2022-07-17T07:06:45;7.83;;;6.33;;
2784;SDS011;57944;48.722;9.316;2022-07-17T07:09:17;7.67;;;5.67;;
2784;SDS011;57944;48.722;9.316;2022-07-17T07:11:47;8.20;;;6.57;;
2784;SDS011;57944;48.722;9.316;2022-07-17T07:14:18;6.33;;;5.30;;
2784;SDS011;57944;48.722;9.316;2022-07-17T07:16:48;8.23;;;5.30;;
2784;SDS011;57944;48.722;9.316;2022-07-17T07:19:18;7.53;;;5.03;;
2784;SDS011;57944;48.722;9.316;2022-07-17T07:21:48;6.33;;;4.73;;
2784;SDS011;57944;48.722;9.316;2022-07-17T07:24:21;5.00;;;4.50;;
2784;SDS011;57944;48.722;9.316;2022-07-17T07:26:51;6.30;;;5.13;;
2784;SDS011;57944;48.722;9.316;2022-07-17T07:29:21;7.20;;;5.73;;
2784;SDS011;57944;48.722;9.316;2022-07-17T07:31:51;7.80;;;5.37;;
2784;SDS011;57944;48.722;9.316;2022-07-17T07:34:21;5.30;;;4.67;;
2784;SDS011;57944;48.722;9.316;2022-07-17T07:36:51;6.30;;;4.10;;
2784;SDS011;57944;48.722;9.316;2022-07-17T07:39:23;7.47;;;4.60;;
2784;SDS011;57944;48.722;9.316;2022-07-17T07:41:54;6.87;;;4.93;;
2784;SDS011;57944;48.722;9.316;2022-07-17T07:44:26;6.20;;;5.10;;
2784;SDS011;57944;48.722;9.316;2022-07-17T07:46:57;6.30;;;4.37;;
2784;SDS011;57944;48.722;9.316;2022-07-17T07:49:28;8.83;;;5.20;;
2784;SDS011;57944;48.722;9.316;2022-07-17T07:52:05;5.87;;;4.73;;
2784;SDS011;57944;48.722;9.316;2022-07-17T07:54:38;5.23;;;3.80;;
2784;SDS011;57944;48.722;9.316;2022-07-17T07:57:09;5.30;;;4.50;;
2784;SDS011;57944;48.722;9.316;2022-07-17T07:59:39;5.80;;;4.60;;
2784;SDS011;57944;48.722;9.316;2022-07-17T08:02:09;6.43;;;5.30;;
2784;SDS011;57944;48.722;9.316;2022-07-17T08:04:39;10.33;;;4.70;;
2784;SDS011;57944;48.722;9.316;2022-07-17T08:07:09;5.13;;;4.47;;
2784;SDS011;57944;48.722;9.316;2022-07-17T08:09:41;6.90;;;5.17;;
2784;SDS011;57944;48.722;9.316;2022-07-17T08:12:11;5.77;;;4.03;;
2784;SDS011;57944;48.722;9.316;2022-07-17T08:15:01;6.70;;;4.77;;
2784;SDS011;57944;48.722;9.316;2022-07-17T08:17:33;6.07;;;5.10;;
2784;SDS011;57944;48.722;9.316;2022-07-17T08:20:04;5.80;;;4.20;;
2784;SDS011;57944;48.722;9.316;2022-07-17T08:22:40;5.73;;;5.13;;
2784;SDS011;57944;48.722;9.316;2022-07-17T08:25:33;5.80;;;5.20;;
2784;SDS011;57944;48.722;9.316;2022-07-17T08:28:04;6.90;;;5.27;;
2784;SDS011;57944;48.722;9.316;2022-07-17T08:30:35;6.43;;;4.73;;
2784;SDS011;57944;48.722;9.316;2022-07-17T08:33:06;6.33;;;4.60;;
2784;SDS011;57944;48.722;9.316;2022-07-17T08:35:37;9.00;;;5.00;;
2784;SDS011;57944;48.722;9.316;2022-07-17T08:38:07;4.83;;;4.40;;
2784;SDS011;57944;48.722;9.316;2022-07-17T08:40:40;5.00;;;4.40;;
2784;SDS011;57944;48.722;9.316;2022-07-17T08:43:14;6.57;;;4.57;;
2784;SDS011;57944;48.722;9.316;2022-07-17T08:45:44;7.57;;;6.77;;
2784;SDS011;57944;48.722;9.316;2022-07-17T08:48:17;6.17;;;4.80;;
2784;SDS011;57944;48.722;9.316;2022-07-17T08:50:48;5.97;;;4.10;;
2784;SDS011;57944;48.722;9.316;2022-07-17T08:53:18;4.43;;;3.90;;
2784;SDS011;57944;48.722;9.316;2022-07-17T08:55:52;5.30;;;4.57;;
2784;SDS011;57944;48.722;9.316;2022-07-17T08:58:22;6.33;;;5.10;;
2784;SDS011;57944;48.722;9.316;2022-07-17T09:00:52;5.17;;;4.23;;
2784;SDS011;57944;48.722;9.316;2022-07-17T09:03:22;5.90;;;4.30;;
2784;SDS011;57944;48.722;9.316;2022-07-17T09:05:53;4.87;;;4.03;;
2784;SDS011;57944;48.722;9.316;2022-07-17T09:08:24;5.70;;;5.00;;
2784;SDS011;57944;48.722;9.316;2022-07-17T09:11:01;5.50;;;3.60;;
2784;SDS011;57944;48.722;9.316;2022-07-17T09:13:35;5.17;;;4.30;;
2784;SDS011;57944;48.722;9.316;2022-07-17T09:16:06;4.60;;;4.20;;
2784;SDS011;57944;48.722;9.316;2022-07-17T09:18:43;4.57;;;4.13;;
2784;SDS011;57944;48.722;9.316;2022-07-17T09:21:17;5.00;;;4.20;;
2784;SDS011;57944;48.722;9.316;2022-07-17T09:23:57;5.10;;;3.60;;
2784;SDS011;57944;48.722;9.316;2022-07-17T09:26:32;4.43;;;3.97;;
2784;SDS011;57944;48.722;9.316;2022-07-17T09:29:04;6.60;;;4.20;;
2784;SDS011;57944;48.722;9.316;2022-07-17T09:31:34;7.97;;;4.13;;
2784;SDS011;57944;48.722;9.316;2022-07-17T09:34:05;5.13;;;3.90;;
2784;SDS011;57944;48.722;9.316;2022-07-17T09:36:45;4.63;;;3.37;;
2784;SDS011;57944;48.722;9.316;2022-07-17T09:39:36;5.30;;;4.03;;
2784;SDS011;57944;48.722;9.316;2022-07-17T09:42:11;5.63;;;3.33;;
2784;SDS011;57944;48.722;9.316;2022-07-17T09:44:56;6.30;;;3.83;;
2784;SDS011;57944;48.722;9.316;2022-07-17T09:47:29;5.50;;;3.60;;
2784;SDS011;57944;48.722;9.316;2022-07-17T09:50:07;4.33;;;3.47;;
2784;SDS011;57944;48.722;9.316;2022-07-17T09:52:37;4.30;;;3.13;;
2784;SDS011;57944;48.722;9.316;2022-07-17T09:55:08;5.90;;;3.93;;
2784;SDS011;57944;48.722;9.316;2022-07-17T09:58:02;4.40;;;3.47;;
2784;SDS011;57944;48.722;9.316;2022-07-17T10:00:34;4.70;;;3.30;;
2784;SDS011;57944;48.722;9.316;2022-07-17T10:03:04;6.43;;;3.30;;
2784;SDS011;57944;48.722;9.316;2022-07-17T10:05:35;4.00;;;3.37;;
2784;SDS011;57944;48.722;9.316;2022-07-17T10:08:11;7.93;;;3.70;;
2784;SDS011;57944;48.722;9.316;2022-07-17T10:10:42;4.43;;;3.50;;
2784;SDS011;57944;48.722;9.316;2022-07-17T10:13:15;4.77;;;3.80;;
2784;SDS011;57944;48.722;9.316;2022-07-17T10:15:46;8.50;;;3.63;;
2784;SDS011;57944;48.722;9.316;2022-07-17T10:18:17;4.87;;;3.50;;
2784;SDS011;57944;48.722;9.316;2022-07-17T10:20:50;6.23;;;3.63;;
2784;SDS011;57944;48.722;9.316;2022-07-17T10:23:20;4.50;;;3.20;;
2784;SDS011;57944;48.722;9.316;2022-07-17T10:25:57;4.83;;;3.33;;
2784;SDS011;57944;48.722;9.316;2022-07-17T10:28:39;4.43;;;3.70;;
2784;SDS011;57944;48.722;9.316;2022-07-17T10:31:21;4.50;;;3.70;;
2784;SDS011;57944;48.722;9.316;2022-07-17T10:33:57;5.10;;;3.40;;
2784;SDS011;57944;48.722;9.316;2022-07-17T10:36:37;4.10;;;3.50;;
2784;SDS011;57944;48.722;9.316;2022-07-17T10:39:12;12.07;;;3.77;;
2784;SDS011;57944;48.722;9.316;2022-07-17T10:41:55;5.77;;;3.60;;
2784;SDS011;57944;48.722;9.316;2022-07-17T10:44:31;4.77;;;3.63;;
2784;SDS011;57944;48.722;9.316;2022-07-17T10:47:01;4.07;;;3.30;;
2784;SDS011;57944;48.722;9.316;2022-07-17T10:49:32;4.10;;;3.57;;
2784;SDS011;57944;48.722;9.316;2022-07-17T10:52:04;4.07;;;3.00;;
2784;SDS011;57944;48.722;9.316;2022-07-17T10:54:34;11.00;;;3.50;;
2784;SDS011;57944;48.722;9.316;2022-07-17T10:57:04;3.70;;;3.03;;
2784;SDS011;57944;48.722;9.316;2022-07-17T10:59:37;4.00;;;3.00;;
2784;SDS011;57944;48.722;9.316;2022-07-17T11:02:11;4.87;;;3.50;;
2784;SDS011;57944;48.722;9.316;2022-07-17T11:04:41;5.93;;;3.53;;
2784;SDS011;57944;48.722;9.316;2022-07-17T11:07:12;3.80;;;2.70;;
2784;SDS011;57944;48.722;9.316;2022-07-17T11:09:46;4.00;;;3.03;;
2784;SDS011;57944;48.722;9.316;2022-07-17T11:12:16;4.30;;;3.40;;
2784;SDS011;57944;48.722;9.316;2022-07-17T11:14:58;4.57;;;3.17;;
2784;SDS011;57944;48.722;9.316;2022-07-17T11:17:29;4.77;;;3.50;;
2784;SDS011;57944;48.722;9.316;2022-07-17T11:19:59;5.70;;;2.90;;
2784;SDS011;57944;48.722;9.316;2022-07-17T11:22:30;3.63;;;2.87;;
2784;SDS011;57944;48.722;9.316;2022-07-17T11:25:02;4.47;;;3.53;;
2784;SDS011;57944;48.722;9.316;2022-07-17T11:27:35;3.90;;;3.03;;
2784;SDS011;57944;48.722;9.316;2022-07-17T11:30:10;3.80;;;3.10;;
2784;SDS011;57944;48.722;9.316;2022-07-17T11:32:42;3.70;;;3.20;;
2784;SDS011;57944;48.722;9.316;2022-07-17T11:35:16;4.27;;;3.53;;
2784;SDS011;57944;48.722;9.316;2022-07-17T11:38:07;3.90;;;2.93;;
2784;SDS011;57944;48.722;9.316;2022-07-17T11:40:44;3.47;;;2.90;;
2784;SDS011;57944;48.722;9.316;2022-07-17T11:43:15;4.70;;;3.27;;
2784;SDS011;57944;48.722;9.316;2022-07-17T11:45:49;4.13;;;3.60;;
2784;SDS011;57944;48.722;9.316;2022-07-17T11:48:20;4.10;;;3.13;;
2784;SDS011;57944;48.722;9.316;2022-07-17T11:50:53;5.27;;;3.70;;
2784;SDS011;57944;48.722;9.316;2022-07-17T11:53:32;3.97;;;3.00;;
2784;SDS011;57944;48.722;9.316;2022-07-17T11:56:04;4.23;;;3.40;;
2784;SDS011;57944;48.722;9.316;2022-07-17T11:58:42;4.20;;;3.43;;
2784;SDS011;57944;48.722;9.316;2022-07-17T12:01:18;4.50;;;3.50;;
2784;SDS011;57944;48.722;9.316;2022-07-17T12:03:55;4.17;;;3.60;;
2784;SDS011;57944;48.722;9.316;2022-07-17T12:06:27;6.80;;;3.50;;
2784;SDS011;57944;48.722;9.316;2022-07-17T12:08:57;4.10;;;3.30;;
2784;SDS011;57944;48.722;9.316;2022-07-17T12:11:27;4.53;;;3.80;;
2784;SDS011;57944;48.722;9.316;2022-07-17T12:14:03;4.30;;;3.50;;
2784;SDS011;57944;48.722;9.316;2022-07-17T12:16:37;4.40;;;3.67;;
2784;SDS011;57944;48.722;9.316;2022-07-17T12:19:09;5.67;;;4.00;;
2784;SDS011;57944;48.722;9.316;2022-07-17T12:21:46;5.80;;;4.23;;
2784;SDS011;57944;48.722;9.316;2022-07-17T12:24:27;4.63;;;3.03;;
2784;SDS011;57944;48.722;9.316;2022-07-17T12:26:59;3.90;;;3.30;;
2784;SDS011;57944;48.722;9.316;2022-07-17T12:29:33;4.20;;;3.23;;
2784;SDS011;57944;48.722;9.316;2022-07-17T12:32:07;5.43;;;3.57;;
2784;SDS011;57944;48.722;9.316;2022-07-17T12:34:40;6.27;;;3.70;;
2784;SDS011;57944;48.722;9.316;2022-07-17T12:37:14;4.27;;;3.87;;
2784;SDS011;57944;48.722;9.316;2022-07-17T12:39:47;5.67;;;3.53;;
2784;SDS011;57944;48.722;9.316;2022-07-17T12:42:19;6.10;;;3.80;;
2784;SDS011;57944;48.722;9.316;2022-07-17T12:44:49;6.20;;;4.20;;
2784;SDS011;57944;48.722;9.316;2022-07-17T12:47:22;3.93;;;3.20;;
2784;SDS011;57944;48.722;9.316;2022-07-17T12:49:52;4.50;;;4.07;;
2784;SDS011;57944;48.722;9.316;2022-07-17T12:52:22;4.17;;;3.50;;
2784;SDS011;57944;48.722;9.316;2022-07-17T12:54:52;5.30;;;3.70;;
2784;SDS011;57944;48.722;9.316;2022-07-17T12:57:22;6.70;;;3.43;;
2784;SDS011;57944;48.722;9.316;2022-07-17T12:59:52;4.33;;;3.20;;
2784;SDS011;57944;48.722;9.316;2022-07-17T13:02:25;5.10;;;3.23;;
2784;SDS011;57944;48.722;9.316;2022-07-17T13:05:15;3.87;;;3.13;;
2784;SDS011;57944;48.722;9.316;2022-07-17T13:07:45;7.50;;;4.50;;
2784;SDS011;57944;48.722;9.316;2022-07-17T13:10:16;3.90;;;3.13;;
2784;SDS011;57944;48.722;9.316;2022-07-17T13:12:46;5.60;;;3.93;;
2784;SDS011;57944;48.722;9.316;2022-07-17T13:15:16;3.80;;;3.40;;
2784;SDS011;57944;48.722;9.316;2022-07-17T13:17:55;4.40;;;3.23;;
2784;SDS011;57944;48.722;9.316;2022-07-17T13:20:26;3.80;;;3.07;;
2784;SDS011;57944;48.722;9.316;2022-07-17T13:22:57;4.10;;;3.60;;
2784;SDS011;57944;48.722;9.316;2022-07-17T13:25:28;6.20;;;3.50;;
2784;SDS011;57944;48.722;9.316;2022-07-17T13:27:59;7.63;;;4.00;;
2784;SDS011;57944;48.722;9.316;2022-07-17T13:30:32;5.87;;;3.73;;
2784;SDS011;57944;48.722;9.316;2022-07-17T13:33:05;3.93;;;3.20;;
2784;SDS011;57944;48.722;9.316;2022-07-17T13:35:35;5.60;;;3.53;;
2784;SDS011;57944;48.722;9.316;2022-07-17T13:38:06;5.23;;;3.70;;
2784;SDS011;57944;48.722;9.316;2022-07-17T13:40:36;4.23;;;3.40;;
2784;SDS011;57944;48.722;9.316;2022-07-17T13:43:06;8.17;;;3.73;;
2784;SDS011;57944;48.722;9.316;2022-07-17T13:45:37;5.00;;;3.60;;
2784;SDS011;57944;48.722;9.316;2022-07-17T13:48:10;4.20;;;3.70;;
2784;SDS011;57944;48.722;9.316;2022-07-17T13:50:41;4.40;;;3.47;;
2784;SDS011;57944;48.722;9.316;2022-07-17T13:53:11;3.90;;;3.33;;
2784;SDS011;57944;48.722;9.316;2022-07-17T13:55:42;4.33;;;3.70;;
2784;SDS011;57944;48.722;9.316;2022-07-17T13:58:18;4.57;;;3.53;;
2784;SDS011;57944;48.722;9.316;2022-07-17T14:00:48;7.10;;;5.37;;
2784;SDS011;57944;48.722;9.316;2022-07-17T14:03:21;4.00;;;3.30;;
2784;SDS011;57944;48.722;9.316;2022-07-17T14:05:52;4.20;;;3.80;;
2784;SDS011;57944;48.722;9.316;2022-07-17T14:08:22;10.23;;;2.60;;
2784;SDS011;57944;48.722;9.316;2022-07-17T14:10:52;4.40;;;3.03;;
2784;SDS011;57944;48.722;9.316;2022-07-17T14:13:22;4.37;;;3.57;;
2784;SDS011;57944;48.722;9.316;2022-07-17T14:15:52;5.40;;;3.40;;
2784;SDS011;57944;48.722;9.316;2022-07-17T14:18:25;4.33;;;3.30;;
2784;SDS011;57944;48.722;9.316;2022-07-17T14:20:55;3.97;;;3.13;;
2784;SDS011;57944;48.722;9.316;2022-07-17T14:23:26;5.10;;;3.47;;
2784;SDS011;57944;48.722;9.316;2022-07-17T14:25:56;4.27;;;3.60;;
2784;SDS011;57944;48.722;9.316;2022-07-17T14:28:26;4.07;;;3.67;;
2784;SDS011;57944;48.722;9.316;2022-07-17T14:30:58;8.23;;;3.30;;
2784;SDS011;57944;48.722;9.316;2022-07-17T14:33:30;4.30;;;3.53;;
2784;SDS011;57944;48.722;9.316;2022-07-17T14:36:00;4.00;;;3.20;;
2784;SDS011;57944;48.722;9.316;2022-07-17T14:38:30;4.10;;;3.37;;
2784;SDS011;57944;48.722;9.316;2022-07-17T14:41:01;4.87;;;3.60;;
2784;SDS011;57944;48.722;9.316;2022-07-17T14:43:32;4.13;;;3.70;;
2784;SDS011;57944;48.722;9.316;2022-07-17T14:46:08;5.50;;;3.30;;
2784;SDS011;57944;48.722;9.316;2022-07-17T14:48:42;4.53;;;3.47;;
2784;SDS011;57944;48.722;9.316;2022-07-17T14:51:12;4.23;;;3.37;;
2784;SDS011;57944;48.722;9.316;2022-07-17T14:53:42;6.30;;;3.63;;
2784;SDS011;57944;48.722;9.316;2022-07-17T14:56:12;3.87;;;3.30;;
2784;SDS011;57944;48.722;9.316;2022-07-17T14:58:42;4.93;;;3.20;;
2784;SDS011;57944;48.722;9.316;2022-07-17T15:01:12;4.33;;;3.67;;
2784;SDS011;57944;48.722;9.316;2022-07-17T15:03:45;4.20;;;3.40;;
2784;SDS011;57944;48.722;9.316;2022-07-17T15:06:15;5.00;;;3.20;;
2784;SDS011;57944;48.722;9.316;2022-07-17T15:08:46;4.20;;;3.27;;
2784;SDS011;57944;48.722;9.316;2022-07-17T15:11:16;6.87;;;3.60;;
2784;SDS011;57944;48.722;9.316;2022-07-17T15:13:46;3.73;;;3.10;;
2784;SDS011;57944;48.722;9.316;2022-07-17T15:16:16;3.97;;;3.07;;
2784;SDS011;57944;48.722;9.316;2022-07-17T15:18:49;9.30;;;4.07;;
2784;SDS011;57944;48.722;9.316;2022-07-17T15:21:19;4.17;;;3.40;;
2784;SDS011;57944;48.722;9.316;2022-07-17T15:24:09;5.50;;;3.73;;
2784;SDS011;57944;48.722;9.316;2022-07-17T15:26:40;7.37;;;4.17;;